<?xml version="1.0" encoding="UTF-8" standalone="no" ?>
<gpx xmlns="http://www.topografix.com/GPX/1/1" xmlns:xsi="http://www.w3.org/2001/XMLSchema-instance" xsi:schemaLocation="http://www.topografix.com/GPX/1/1 http://www.topografix.com/GPX/1/1/gpx.xsd" version="1.1" creator="VisuGPX - https://www.visugpx.com">
  <metadata>
    <name>Ouest presqu'ile de Giens</name>
    <desc><![CDATA[Boucle Presqu'ile de Giens]]></desc>
  </metadata>
  <trk>
    <name><![CDATA[ouest presqu'île de Giens vtt-13379303]]></name>
    <extensions>
      <line xmlns="http://www.topografix.com/GPX/gpx_style/0/2">
        <color>0000FF</color>
        <width>4</width>
      </line>
    </extensions>
    <trkseg>
      <trkpt lat="43.03687" lon="6.14952">
        <ele>18</ele>
        <time>2024-11-11T13:30:55Z</time>
      </trkpt>
      <trkpt lat="43.03692" lon="6.14958">
        <ele>17</ele>
        <time>2024-11-11T13:30:57Z</time>
      </trkpt>
      <trkpt lat="43.0369" lon="6.14956">
        <ele>17</ele>
        <time>2024-11-11T13:30:57Z</time>
      </trkpt>
      <trkpt lat="43.03703" lon="6.14959">
        <ele>17</ele>
        <time>2024-11-11T13:31:00Z</time>
      </trkpt>
      <trkpt lat="43.03746" lon="6.14941">
        <ele>18</ele>
        <time>2024-11-11T13:31:11Z</time>
      </trkpt>
      <trkpt lat="43.0379" lon="6.14949">
        <ele>15</ele>
        <time>2024-11-11T13:31:21Z</time>
      </trkpt>
      <trkpt lat="43.03825" lon="6.14932">
        <ele>14</ele>
        <time>2024-11-11T13:31:30Z</time>
      </trkpt>
      <trkpt lat="43.0384" lon="6.14935">
        <ele>13</ele>
        <time>2024-11-11T13:31:33Z</time>
      </trkpt>
      <trkpt lat="43.03856" lon="6.14946">
        <ele>12</ele>
        <time>2024-11-11T13:31:37Z</time>
      </trkpt>
      <trkpt lat="43.03867" lon="6.14945">
        <ele>11</ele>
        <time>2024-11-11T13:31:40Z</time>
      </trkpt>
      <trkpt lat="43.03893" lon="6.14889">
        <ele>9</ele>
        <time>2024-11-11T13:31:51Z</time>
      </trkpt>
      <trkpt lat="43.03909" lon="6.1487">
        <ele>8</ele>
        <time>2024-11-11T13:31:56Z</time>
      </trkpt>
      <trkpt lat="43.03945" lon="6.148">
        <ele>7</ele>
        <time>2024-11-11T13:32:11Z</time>
      </trkpt>
      <trkpt lat="43.03995" lon="6.14731">
        <ele>4</ele>
        <time>2024-11-11T13:32:28Z</time>
      </trkpt>
      <trkpt lat="43.04039" lon="6.14632">
        <ele>4</ele>
        <time>2024-11-11T13:32:47Z</time>
      </trkpt>
      <trkpt lat="43.0406" lon="6.14575">
        <ele>3</ele>
        <time>2024-11-11T13:32:58Z</time>
      </trkpt>
      <trkpt lat="43.04074" lon="6.14549">
        <ele>3</ele>
        <time>2024-11-11T13:33:04Z</time>
      </trkpt>
      <trkpt lat="43.04097" lon="6.14526">
        <ele>3</ele>
        <time>2024-11-11T13:33:10Z</time>
      </trkpt>
      <trkpt lat="43.04113" lon="6.14495">
        <ele>3</ele>
        <time>2024-11-11T13:33:17Z</time>
      </trkpt>
      <trkpt lat="43.04114" lon="6.14487">
        <ele>3</ele>
        <time>2024-11-11T13:33:18Z</time>
      </trkpt>
      <trkpt lat="43.04097" lon="6.1442">
        <ele>3</ele>
        <time>2024-11-11T13:33:30Z</time>
      </trkpt>
      <trkpt lat="43.04102" lon="6.14386">
        <ele>4</ele>
        <time>2024-11-11T13:33:36Z</time>
      </trkpt>
      <trkpt lat="43.04224" lon="6.14089">
        <ele>3</ele>
        <time>2024-11-11T13:34:34Z</time>
      </trkpt>
      <trkpt lat="43.04271" lon="6.14003">
        <ele>3</ele>
        <time>2024-11-11T13:34:53Z</time>
      </trkpt>
      <trkpt lat="43.04372" lon="6.13899">
        <ele>4</ele>
        <time>2024-11-11T13:35:22Z</time>
      </trkpt>
      <trkpt lat="43.04419" lon="6.13803">
        <ele>3</ele>
        <time>2024-11-11T13:35:42Z</time>
      </trkpt>
      <trkpt lat="43.04463" lon="6.13614">
        <ele>1.7</ele>
        <time>2024-11-11T13:36:16Z</time>
      </trkpt>
      <trkpt lat="43.0447" lon="6.13563">
        <ele>2.1</ele>
        <time>2024-11-11T13:36:25Z</time>
      </trkpt>
      <trkpt lat="43.04464" lon="6.13507">
        <ele>1</ele>
        <time>2024-11-11T13:36:34Z</time>
      </trkpt>
      <trkpt lat="43.0445" lon="6.13504">
        <ele>2</ele>
        <time>2024-11-11T13:36:38Z</time>
      </trkpt>
      <trkpt lat="43.04245" lon="6.13367">
        <ele>10</ele>
        <time>2024-11-11T13:37:31Z</time>
      </trkpt>
      <trkpt lat="43.04194" lon="6.13329">
        <ele>14</ele>
        <time>2024-11-11T13:37:44Z</time>
      </trkpt>
      <trkpt lat="43.04182" lon="6.13313">
        <ele>15</ele>
        <time>2024-11-11T13:37:48Z</time>
      </trkpt>
      <trkpt lat="43.04176" lon="6.13283">
        <ele>14</ele>
        <time>2024-11-11T13:37:54Z</time>
      </trkpt>
      <trkpt lat="43.0417" lon="6.13122">
        <ele>12</ele>
        <time>2024-11-11T13:38:21Z</time>
      </trkpt>
      <trkpt lat="43.04173" lon="6.13089">
        <ele>11</ele>
        <time>2024-11-11T13:38:27Z</time>
      </trkpt>
      <trkpt lat="43.04185" lon="6.1304">
        <ele>9</ele>
        <time>2024-11-11T13:38:36Z</time>
      </trkpt>
      <trkpt lat="43.04186" lon="6.12981">
        <ele>9</ele>
        <time>2024-11-11T13:38:46Z</time>
      </trkpt>
      <trkpt lat="43.04153" lon="6.12749">
        <ele>7</ele>
        <time>2024-11-11T13:39:26Z</time>
      </trkpt>
      <trkpt lat="43.04135" lon="6.12702">
        <ele>6</ele>
        <time>2024-11-11T13:39:35Z</time>
      </trkpt>
      <trkpt lat="43.04106" lon="6.12657">
        <ele>7</ele>
        <time>2024-11-11T13:39:45Z</time>
      </trkpt>
      <trkpt lat="43.04076" lon="6.12595">
        <ele>8</ele>
        <time>2024-11-11T13:39:58Z</time>
      </trkpt>
      <trkpt lat="43.04057" lon="6.12502">
        <ele>6</ele>
        <time>2024-11-11T13:40:15Z</time>
      </trkpt>
      <trkpt lat="43.04033" lon="6.12412">
        <ele>7</ele>
        <time>2024-11-11T13:40:31Z</time>
      </trkpt>
      <trkpt lat="43.04029" lon="6.12347">
        <ele>7</ele>
        <time>2024-11-11T13:40:42Z</time>
      </trkpt>
      <trkpt lat="43.04041" lon="6.12273">
        <ele>4</ele>
        <time>2024-11-11T13:40:55Z</time>
      </trkpt>
      <trkpt lat="43.04032" lon="6.1222">
        <ele>3</ele>
        <time>2024-11-11T13:41:04Z</time>
      </trkpt>
      <trkpt lat="43.04017" lon="6.12181">
        <ele>2</ele>
        <time>2024-11-11T13:41:12Z</time>
      </trkpt>
      <trkpt lat="43.03998" lon="6.12147">
        <ele>2</ele>
        <time>2024-11-11T13:41:19Z</time>
      </trkpt>
      <trkpt lat="43.03909" lon="6.12013">
        <ele>4</ele>
        <time>2024-11-11T13:41:50Z</time>
      </trkpt>
      <trkpt lat="43.03891" lon="6.11948">
        <ele>2</ele>
        <time>2024-11-11T13:42:02Z</time>
      </trkpt>
      <trkpt lat="43.03881" lon="6.11893">
        <ele>3</ele>
        <time>2024-11-11T13:42:12Z</time>
      </trkpt>
      <trkpt lat="43.03879" lon="6.11854">
        <ele>5</ele>
        <time>2024-11-11T13:42:18Z</time>
      </trkpt>
      <trkpt lat="43.03892" lon="6.11793">
        <ele>6</ele>
        <time>2024-11-11T13:42:29Z</time>
      </trkpt>
      <trkpt lat="43.03903" lon="6.11663">
        <ele>8</ele>
        <time>2024-11-11T13:42:51Z</time>
      </trkpt>
      <trkpt lat="43.03944" lon="6.11428">
        <ele>6</ele>
        <time>2024-11-11T13:43:33Z</time>
      </trkpt>
      <trkpt lat="43.0395" lon="6.11369">
        <ele>6</ele>
        <time>2024-11-11T13:43:43Z</time>
      </trkpt>
      <trkpt lat="43.03949" lon="6.1105">
        <ele>7</ele>
        <time>2024-11-11T13:44:37Z</time>
      </trkpt>
      <trkpt lat="43.03957" lon="6.11018">
        <ele>6</ele>
        <time>2024-11-11T13:44:43Z</time>
      </trkpt>
      <trkpt lat="43.04004" lon="6.10924">
        <ele>3</ele>
        <time>2024-11-11T13:45:02Z</time>
      </trkpt>
      <trkpt lat="43.04012" lon="6.10804">
        <ele>7</ele>
        <time>2024-11-11T13:45:23Z</time>
      </trkpt>
      <trkpt lat="43.04043" lon="6.10571">
        <ele>13</ele>
        <time>2024-11-11T13:46:03Z</time>
      </trkpt>
      <trkpt lat="43.0404" lon="6.10539">
        <ele>14</ele>
        <time>2024-11-11T13:46:09Z</time>
      </trkpt>
      <trkpt lat="43.04022" lon="6.10467">
        <ele>17</ele>
        <time>2024-11-11T13:46:22Z</time>
      </trkpt>
      <trkpt lat="43.04" lon="6.10394">
        <ele>17</ele>
        <time>2024-11-11T13:46:35Z</time>
      </trkpt>
      <trkpt lat="43.03974" lon="6.10339">
        <ele>20</ele>
        <time>2024-11-11T13:46:47Z</time>
      </trkpt>
      <trkpt lat="43.03971" lon="6.10291">
        <ele>21</ele>
        <time>2024-11-11T13:46:55Z</time>
      </trkpt>
      <trkpt lat="43.03965" lon="6.10271">
        <ele>22</ele>
        <time>2024-11-11T13:46:59Z</time>
      </trkpt>
      <trkpt lat="43.0395" lon="6.10246">
        <ele>24</ele>
        <time>2024-11-11T13:47:04Z</time>
      </trkpt>
      <trkpt lat="43.03937" lon="6.10198">
        <ele>24</ele>
        <time>2024-11-11T13:47:13Z</time>
      </trkpt>
      <trkpt lat="43.03968" lon="6.10108">
        <ele>19</ele>
        <time>2024-11-11T13:47:30Z</time>
      </trkpt>
      <trkpt lat="43.04006" lon="6.10055">
        <ele>13</ele>
        <time>2024-11-11T13:47:42Z</time>
      </trkpt>
      <trkpt lat="43.04034" lon="6.0991">
        <ele>6</ele>
        <time>2024-11-11T13:48:08Z</time>
      </trkpt>
      <trkpt lat="43.04043" lon="6.09883">
        <ele>5</ele>
        <time>2024-11-11T13:48:13Z</time>
      </trkpt>
      <trkpt lat="43.04042" lon="6.09839">
        <ele>5</ele>
        <time>2024-11-11T13:48:21Z</time>
      </trkpt>
      <trkpt lat="43.04038" lon="6.09822">
        <ele>6</ele>
        <time>2024-11-11T13:48:24Z</time>
      </trkpt>
      <trkpt lat="43.04041" lon="6.09805">
        <ele>6</ele>
        <time>2024-11-11T13:48:27Z</time>
      </trkpt>
      <trkpt lat="43.04031" lon="6.09791">
        <ele>7</ele>
        <time>2024-11-11T13:48:30Z</time>
      </trkpt>
      <trkpt lat="43.04004" lon="6.09781">
        <ele>11</ele>
        <time>2024-11-11T13:48:37Z</time>
      </trkpt>
      <trkpt lat="43.03986" lon="6.09795">
        <ele>13</ele>
        <time>2024-11-11T13:48:41Z</time>
      </trkpt>
      <trkpt lat="43.03969" lon="6.098">
        <ele>14</ele>
        <time>2024-11-11T13:48:45Z</time>
      </trkpt>
      <trkpt lat="43.03946" lon="6.09835">
        <ele>17</ele>
        <time>2024-11-11T13:48:53Z</time>
      </trkpt>
      <trkpt lat="43.0392" lon="6.0985">
        <ele>20</ele>
        <time>2024-11-11T13:49:00Z</time>
      </trkpt>
      <trkpt lat="43.03908" lon="6.09874">
        <ele>22</ele>
        <time>2024-11-11T13:49:05Z</time>
      </trkpt>
      <trkpt lat="43.03902" lon="6.09875">
        <ele>23</ele>
        <time>2024-11-11T13:49:06Z</time>
      </trkpt>
      <trkpt lat="43.03889" lon="6.09853">
        <ele>25</ele>
        <time>2024-11-11T13:49:11Z</time>
      </trkpt>
      <trkpt lat="43.03868" lon="6.09834">
        <ele>28</ele>
        <time>2024-11-11T13:49:17Z</time>
      </trkpt>
      <trkpt lat="43.03848" lon="6.09806">
        <ele>29</ele>
        <time>2024-11-11T13:49:24Z</time>
      </trkpt>
      <trkpt lat="43.03821" lon="6.09707">
        <ele>24</ele>
        <time>2024-11-11T13:49:42Z</time>
      </trkpt>
      <trkpt lat="43.03815" lon="6.09699">
        <ele>24</ele>
        <time>2024-11-11T13:49:44Z</time>
      </trkpt>
      <trkpt lat="43.03795" lon="6.09695">
        <ele>24</ele>
        <time>2024-11-11T13:49:49Z</time>
      </trkpt>
      <trkpt lat="43.03792" lon="6.09666">
        <ele>20</ele>
        <time>2024-11-11T13:49:54Z</time>
      </trkpt>
      <trkpt lat="43.03797" lon="6.09641">
        <ele>19</ele>
        <time>2024-11-11T13:49:58Z</time>
      </trkpt>
      <trkpt lat="43.03794" lon="6.09632">
        <ele>19</ele>
        <time>2024-11-11T13:50:00Z</time>
      </trkpt>
      <trkpt lat="43.03773" lon="6.09606">
        <ele>18</ele>
        <time>2024-11-11T13:50:06Z</time>
      </trkpt>
      <trkpt lat="43.03751" lon="6.09608">
        <ele>19</ele>
        <time>2024-11-11T13:50:11Z</time>
      </trkpt>
      <trkpt lat="43.03723" lon="6.09577">
        <ele>22</ele>
        <time>2024-11-11T13:50:20Z</time>
      </trkpt>
      <trkpt lat="43.03722" lon="6.09569">
        <ele>22</ele>
        <time>2024-11-11T13:50:21Z</time>
      </trkpt>
      <trkpt lat="43.03748" lon="6.09529">
        <ele>21</ele>
        <time>2024-11-11T13:50:30Z</time>
      </trkpt>
      <trkpt lat="43.03736" lon="6.09514">
        <ele>23</ele>
        <time>2024-11-11T13:50:34Z</time>
      </trkpt>
      <trkpt lat="43.0373" lon="6.09492">
        <ele>24</ele>
        <time>2024-11-11T13:50:38Z</time>
      </trkpt>
      <trkpt lat="43.03718" lon="6.09478">
        <ele>26</ele>
        <time>2024-11-11T13:50:42Z</time>
      </trkpt>
      <trkpt lat="43.03696" lon="6.09459">
        <ele>28</ele>
        <time>2024-11-11T13:50:48Z</time>
      </trkpt>
      <trkpt lat="43.03686" lon="6.09455">
        <ele>29</ele>
        <time>2024-11-11T13:50:50Z</time>
      </trkpt>
      <trkpt lat="43.03641" lon="6.09489">
        <ele>33</ele>
        <time>2024-11-11T13:51:02Z</time>
      </trkpt>
      <trkpt lat="43.03611" lon="6.09488">
        <ele>36</ele>
        <time>2024-11-11T13:51:09Z</time>
      </trkpt>
      <trkpt lat="43.03571" lon="6.09497">
        <ele>40</ele>
        <time>2024-11-11T13:51:19Z</time>
      </trkpt>
      <trkpt lat="43.03537" lon="6.09498">
        <ele>45</ele>
        <time>2024-11-11T13:51:27Z</time>
      </trkpt>
      <trkpt lat="43.0351" lon="6.09485">
        <ele>50</ele>
        <time>2024-11-11T13:51:33Z</time>
      </trkpt>
      <trkpt lat="43.03498" lon="6.09467">
        <ele>51</ele>
        <time>2024-11-11T13:51:38Z</time>
      </trkpt>
      <trkpt lat="43.03486" lon="6.09457">
        <ele>48</ele>
        <time>2024-11-11T13:51:41Z</time>
      </trkpt>
      <trkpt lat="43.03471" lon="6.09454">
        <ele>45</ele>
        <time>2024-11-11T13:51:44Z</time>
      </trkpt>
      <trkpt lat="43.03455" lon="6.09463">
        <ele>43</ele>
        <time>2024-11-11T13:51:48Z</time>
      </trkpt>
      <trkpt lat="43.03439" lon="6.0948">
        <ele>41</ele>
        <time>2024-11-11T13:51:53Z</time>
      </trkpt>
      <trkpt lat="43.03417" lon="6.09531">
        <ele>40</ele>
        <time>2024-11-11T13:52:03Z</time>
      </trkpt>
      <trkpt lat="43.03413" lon="6.09549">
        <ele>39</ele>
        <time>2024-11-11T13:52:07Z</time>
      </trkpt>
      <trkpt lat="43.03411" lon="6.09577">
        <ele>40</ele>
        <time>2024-11-11T13:52:11Z</time>
      </trkpt>
      <trkpt lat="43.03435" lon="6.09655">
        <ele>50</ele>
        <time>2024-11-11T13:52:26Z</time>
      </trkpt>
      <trkpt lat="43.03404" lon="6.09703">
        <ele>48</ele>
        <time>2024-11-11T13:52:37Z</time>
      </trkpt>
      <trkpt lat="43.03371" lon="6.09739">
        <ele>47</ele>
        <time>2024-11-11T13:52:47Z</time>
      </trkpt>
      <trkpt lat="43.03358" lon="6.09789">
        <ele>55</ele>
        <time>2024-11-11T13:52:56Z</time>
      </trkpt>
      <trkpt lat="43.03358" lon="6.09811">
        <ele>60</ele>
        <time>2024-11-11T13:52:59Z</time>
      </trkpt>
      <trkpt lat="43.0335" lon="6.09823">
        <ele>63</ele>
        <time>2024-11-11T13:53:02Z</time>
      </trkpt>
      <trkpt lat="43.03337" lon="6.09828">
        <ele>65</ele>
        <time>2024-11-11T13:53:05Z</time>
      </trkpt>
      <trkpt lat="43.03326" lon="6.09838">
        <ele>68</ele>
        <time>2024-11-11T13:53:08Z</time>
      </trkpt>
      <trkpt lat="43.03318" lon="6.09838">
        <ele>69</ele>
        <time>2024-11-11T13:53:10Z</time>
      </trkpt>
      <trkpt lat="43.03311" lon="6.09851">
        <ele>72</ele>
        <time>2024-11-11T13:53:13Z</time>
      </trkpt>
      <trkpt lat="43.03303" lon="6.09849">
        <ele>72</ele>
        <time>2024-11-11T13:53:15Z</time>
      </trkpt>
      <trkpt lat="43.03289" lon="6.09858">
        <ele>75</ele>
        <time>2024-11-11T13:53:19Z</time>
      </trkpt>
      <trkpt lat="43.03275" lon="6.09858">
        <ele>77</ele>
        <time>2024-11-11T13:53:22Z</time>
      </trkpt>
      <trkpt lat="43.03227" lon="6.09834">
        <ele>78</ele>
        <time>2024-11-11T13:53:34Z</time>
      </trkpt>
      <trkpt lat="43.03194" lon="6.09856">
        <ele>85</ele>
        <time>2024-11-11T13:53:42Z</time>
      </trkpt>
      <trkpt lat="43.03182" lon="6.09856">
        <ele>86</ele>
        <time>2024-11-11T13:53:45Z</time>
      </trkpt>
      <trkpt lat="43.03155" lon="6.09831">
        <ele>85</ele>
        <time>2024-11-11T13:53:53Z</time>
      </trkpt>
      <trkpt lat="43.03144" lon="6.098">
        <ele>76</ele>
        <time>2024-11-11T13:53:59Z</time>
      </trkpt>
      <trkpt lat="43.03136" lon="6.0979">
        <ele>75</ele>
        <time>2024-11-11T13:54:01Z</time>
      </trkpt>
      <trkpt lat="43.0309" lon="6.09765">
        <ele>87</ele>
        <time>2024-11-11T13:54:13Z</time>
      </trkpt>
      <trkpt lat="43.03077" lon="6.0974">
        <ele>84</ele>
        <time>2024-11-11T13:54:18Z</time>
      </trkpt>
      <trkpt lat="43.03073" lon="6.09705">
        <ele>64</ele>
        <time>2024-11-11T13:54:24Z</time>
      </trkpt>
      <trkpt lat="43.03044" lon="6.0967">
        <ele>51</ele>
        <time>2024-11-11T13:54:33Z</time>
      </trkpt>
      <trkpt lat="43.03001" lon="6.09659">
        <ele>56</ele>
        <time>2024-11-11T13:54:43Z</time>
      </trkpt>
      <trkpt lat="43.02956" lon="6.09654">
        <ele>45</ele>
        <time>2024-11-11T13:54:54Z</time>
      </trkpt>
      <trkpt lat="43.02907" lon="6.09611">
        <ele>16</ele>
        <time>2024-11-11T13:55:07Z</time>
      </trkpt>
      <trkpt lat="43.02901" lon="6.09611">
        <ele>16</ele>
        <time>2024-11-11T13:55:09Z</time>
      </trkpt>
      <trkpt lat="43.02884" lon="6.09626">
        <ele>20</ele>
        <time>2024-11-11T13:55:13Z</time>
      </trkpt>
      <trkpt lat="43.0285" lon="6.09636">
        <ele>18</ele>
        <time>2024-11-11T13:55:22Z</time>
      </trkpt>
      <trkpt lat="43.02816" lon="6.09683">
        <ele>20</ele>
        <time>2024-11-11T13:55:33Z</time>
      </trkpt>
      <trkpt lat="43.02799" lon="6.09697">
        <ele>17</ele>
        <time>2024-11-11T13:55:38Z</time>
      </trkpt>
      <trkpt lat="43.02825" lon="6.09674">
        <ele>21</ele>
        <time>2024-11-11T13:55:45Z</time>
      </trkpt>
      <trkpt lat="43.02848" lon="6.0964">
        <ele>19</ele>
        <time>2024-11-11T13:55:53Z</time>
      </trkpt>
      <trkpt lat="43.02863" lon="6.09634">
        <ele>19</ele>
        <time>2024-11-11T13:55:56Z</time>
      </trkpt>
      <trkpt lat="43.02849" lon="6.09636">
        <ele>18</ele>
        <time>2024-11-11T13:56:00Z</time>
      </trkpt>
      <trkpt lat="43.02829" lon="6.0966">
        <ele>20</ele>
        <time>2024-11-11T13:56:06Z</time>
      </trkpt>
      <trkpt lat="43.02809" lon="6.09697">
        <ele>19</ele>
        <time>2024-11-11T13:56:14Z</time>
      </trkpt>
      <trkpt lat="43.02832" lon="6.0966">
        <ele>20</ele>
        <time>2024-11-11T13:56:22Z</time>
      </trkpt>
      <trkpt lat="43.02848" lon="6.09643">
        <ele>19</ele>
        <time>2024-11-11T13:56:27Z</time>
      </trkpt>
      <trkpt lat="43.02869" lon="6.09633">
        <ele>20</ele>
        <time>2024-11-11T13:56:32Z</time>
      </trkpt>
      <trkpt lat="43.02887" lon="6.09633">
        <ele>23</ele>
        <time>2024-11-11T13:56:36Z</time>
      </trkpt>
      <trkpt lat="43.02908" lon="6.09614">
        <ele>18</ele>
        <time>2024-11-11T13:56:42Z</time>
      </trkpt>
      <trkpt lat="43.0296" lon="6.09656">
        <ele>47</ele>
        <time>2024-11-11T13:56:56Z</time>
      </trkpt>
      <trkpt lat="43.03023" lon="6.09664">
        <ele>53</ele>
        <time>2024-11-11T13:57:11Z</time>
      </trkpt>
      <trkpt lat="43.03044" lon="6.09674">
        <ele>54</ele>
        <time>2024-11-11T13:57:16Z</time>
      </trkpt>
      <trkpt lat="43.03069" lon="6.09703">
        <ele>64</ele>
        <time>2024-11-11T13:57:24Z</time>
      </trkpt>
      <trkpt lat="43.03071" lon="6.09737">
        <ele>84</ele>
        <time>2024-11-11T13:57:30Z</time>
      </trkpt>
      <trkpt lat="43.03078" lon="6.09753">
        <ele>90</ele>
        <time>2024-11-11T13:57:33Z</time>
      </trkpt>
      <trkpt lat="43.03096" lon="6.09771">
        <ele>86</ele>
        <time>2024-11-11T13:57:38Z</time>
      </trkpt>
      <trkpt lat="43.03138" lon="6.09797">
        <ele>77</ele>
        <time>2024-11-11T13:57:49Z</time>
      </trkpt>
      <trkpt lat="43.03145" lon="6.09822">
        <ele>84</ele>
        <time>2024-11-11T13:57:53Z</time>
      </trkpt>
      <trkpt lat="43.03164" lon="6.09846">
        <ele>86</ele>
        <time>2024-11-11T13:57:59Z</time>
      </trkpt>
      <trkpt lat="43.03175" lon="6.09854">
        <ele>87</ele>
        <time>2024-11-11T13:58:02Z</time>
      </trkpt>
      <trkpt lat="43.0319" lon="6.09855">
        <ele>86</ele>
        <time>2024-11-11T13:58:06Z</time>
      </trkpt>
      <trkpt lat="43.03218" lon="6.09836">
        <ele>79</ele>
        <time>2024-11-11T13:58:13Z</time>
      </trkpt>
      <trkpt lat="43.03228" lon="6.09835">
        <ele>78</ele>
        <time>2024-11-11T13:58:15Z</time>
      </trkpt>
      <trkpt lat="43.03273" lon="6.09861">
        <ele>78</ele>
        <time>2024-11-11T13:58:27Z</time>
      </trkpt>
      <trkpt lat="43.03296" lon="6.09879">
        <ele>77</ele>
        <time>2024-11-11T13:58:33Z</time>
      </trkpt>
      <trkpt lat="43.03303" lon="6.0989">
        <ele>78</ele>
        <time>2024-11-11T13:58:35Z</time>
      </trkpt>
      <trkpt lat="43.03287" lon="6.09944">
        <ele>84</ele>
        <time>2024-11-11T13:58:45Z</time>
      </trkpt>
      <trkpt lat="43.03289" lon="6.09953">
        <ele>84</ele>
        <time>2024-11-11T13:58:47Z</time>
      </trkpt>
      <trkpt lat="43.03301" lon="6.09969">
        <ele>83</ele>
        <time>2024-11-11T13:58:51Z</time>
      </trkpt>
      <trkpt lat="43.0329" lon="6.0997">
        <ele>84</ele>
        <time>2024-11-11T13:58:53Z</time>
      </trkpt>
      <trkpt lat="43.03274" lon="6.0998">
        <ele>86</ele>
        <time>2024-11-11T13:58:58Z</time>
      </trkpt>
      <trkpt lat="43.03292" lon="6.09975">
        <ele>84</ele>
        <time>2024-11-11T13:59:02Z</time>
      </trkpt>
      <trkpt lat="43.03323" lon="6.09983">
        <ele>81</ele>
        <time>2024-11-11T13:59:09Z</time>
      </trkpt>
      <trkpt lat="43.0333" lon="6.09997">
        <ele>81</ele>
        <time>2024-11-11T13:59:12Z</time>
      </trkpt>
      <trkpt lat="43.03344" lon="6.09995">
        <ele>80</ele>
        <time>2024-11-11T13:59:15Z</time>
      </trkpt>
      <trkpt lat="43.03367" lon="6.10002">
        <ele>79</ele>
        <time>2024-11-11T13:59:21Z</time>
      </trkpt>
      <trkpt lat="43.03386" lon="6.10011">
        <ele>78</ele>
        <time>2024-11-11T13:59:26Z</time>
      </trkpt>
      <trkpt lat="43.03395" lon="6.1002">
        <ele>78</ele>
        <time>2024-11-11T13:59:28Z</time>
      </trkpt>
      <trkpt lat="43.03399" lon="6.10035">
        <ele>78</ele>
        <time>2024-11-11T13:59:31Z</time>
      </trkpt>
      <trkpt lat="43.03383" lon="6.10102">
        <ele>77</ele>
        <time>2024-11-11T13:59:43Z</time>
      </trkpt>
      <trkpt lat="43.03408" lon="6.10162">
        <ele>79</ele>
        <time>2024-11-11T13:59:55Z</time>
      </trkpt>
      <trkpt lat="43.0341" lon="6.10179">
        <ele>81</ele>
        <time>2024-11-11T13:59:58Z</time>
      </trkpt>
      <trkpt lat="43.03382" lon="6.1021">
        <ele>78</ele>
        <time>2024-11-11T14:00:06Z</time>
      </trkpt>
      <trkpt lat="43.03358" lon="6.10311">
        <ele>78</ele>
        <time>2024-11-11T14:00:24Z</time>
      </trkpt>
      <trkpt lat="43.03349" lon="6.10367">
        <ele>76</ele>
        <time>2024-11-11T14:00:34Z</time>
      </trkpt>
      <trkpt lat="43.03373" lon="6.10409">
        <ele>83</ele>
        <time>2024-11-11T14:00:43Z</time>
      </trkpt>
      <trkpt lat="43.03389" lon="6.10451">
        <ele>88</ele>
        <time>2024-11-11T14:00:51Z</time>
      </trkpt>
      <trkpt lat="43.03392" lon="6.10503">
        <ele>87</ele>
        <time>2024-11-11T14:01:00Z</time>
      </trkpt>
      <trkpt lat="43.03408" lon="6.10541">
        <ele>92</ele>
        <time>2024-11-11T14:01:08Z</time>
      </trkpt>
      <trkpt lat="43.03419" lon="6.10594">
        <ele>94</ele>
        <time>2024-11-11T14:01:17Z</time>
      </trkpt>
      <trkpt lat="43.03414" lon="6.1064">
        <ele>90</ele>
        <time>2024-11-11T14:01:25Z</time>
      </trkpt>
      <trkpt lat="43.03436" lon="6.10701">
        <ele>88</ele>
        <time>2024-11-11T14:01:37Z</time>
      </trkpt>
      <trkpt lat="43.03447" lon="6.10759">
        <ele>85</ele>
        <time>2024-11-11T14:01:47Z</time>
      </trkpt>
      <trkpt lat="43.03449" lon="6.10806">
        <ele>83</ele>
        <time>2024-11-11T14:01:55Z</time>
      </trkpt>
      <trkpt lat="43.03485" lon="6.10832">
        <ele>82</ele>
        <time>2024-11-11T14:02:04Z</time>
      </trkpt>
      <trkpt lat="43.03502" lon="6.10851">
        <ele>79</ele>
        <time>2024-11-11T14:02:09Z</time>
      </trkpt>
      <trkpt lat="43.03537" lon="6.10866">
        <ele>69</ele>
        <time>2024-11-11T14:02:18Z</time>
      </trkpt>
      <trkpt lat="43.03564" lon="6.109">
        <ele>62</ele>
        <time>2024-11-11T14:02:27Z</time>
      </trkpt>
      <trkpt lat="43.03598" lon="6.10913">
        <ele>56</ele>
        <time>2024-11-11T14:02:35Z</time>
      </trkpt>
      <trkpt lat="43.03636" lon="6.10904">
        <ele>51</ele>
        <time>2024-11-11T14:02:44Z</time>
      </trkpt>
      <trkpt lat="43.03646" lon="6.10918">
        <ele>50</ele>
        <time>2024-11-11T14:02:47Z</time>
      </trkpt>
      <trkpt lat="43.03643" lon="6.10948">
        <ele>47</ele>
        <time>2024-11-11T14:02:52Z</time>
      </trkpt>
      <trkpt lat="43.03631" lon="6.10989">
        <ele>44</ele>
        <time>2024-11-11T14:03:00Z</time>
      </trkpt>
      <trkpt lat="43.03635" lon="6.11052">
        <ele>41</ele>
        <time>2024-11-11T14:03:11Z</time>
      </trkpt>
      <trkpt lat="43.03545" lon="6.11161">
        <ele>25</ele>
        <time>2024-11-11T14:03:39Z</time>
      </trkpt>
      <trkpt lat="43.03533" lon="6.11193">
        <ele>22</ele>
        <time>2024-11-11T14:03:45Z</time>
      </trkpt>
      <trkpt lat="43.03533" lon="6.11202">
        <ele>21</ele>
        <time>2024-11-11T14:03:46Z</time>
      </trkpt>
      <trkpt lat="43.03543" lon="6.11166">
        <ele>24</ele>
        <time>2024-11-11T14:03:53Z</time>
      </trkpt>
      <trkpt lat="43.03553" lon="6.11151">
        <ele>27</ele>
        <time>2024-11-11T14:03:56Z</time>
      </trkpt>
      <trkpt lat="43.03637" lon="6.11049">
        <ele>41</ele>
        <time>2024-11-11T14:04:23Z</time>
      </trkpt>
      <trkpt lat="43.03641" lon="6.11053">
        <ele>41</ele>
        <time>2024-11-11T14:04:24Z</time>
      </trkpt>
      <trkpt lat="43.0365" lon="6.11102">
        <ele>41</ele>
        <time>2024-11-11T14:04:32Z</time>
      </trkpt>
      <trkpt lat="43.03658" lon="6.11116">
        <ele>41</ele>
        <time>2024-11-11T14:04:36Z</time>
      </trkpt>
      <trkpt lat="43.03663" lon="6.11121">
        <ele>41</ele>
        <time>2024-11-11T14:04:37Z</time>
      </trkpt>
      <trkpt lat="43.03683" lon="6.11123">
        <ele>40</ele>
        <time>2024-11-11T14:04:42Z</time>
      </trkpt>
      <trkpt lat="43.0373" lon="6.11074">
        <ele>37</ele>
        <time>2024-11-11T14:04:55Z</time>
      </trkpt>
      <trkpt lat="43.03762" lon="6.11021">
        <ele>32</ele>
        <time>2024-11-11T14:05:07Z</time>
      </trkpt>
      <trkpt lat="43.03799" lon="6.11028">
        <ele>26</ele>
        <time>2024-11-11T14:05:16Z</time>
      </trkpt>
      <trkpt lat="43.03835" lon="6.11026">
        <ele>20</ele>
        <time>2024-11-11T14:05:24Z</time>
      </trkpt>
      <trkpt lat="43.03857" lon="6.11016">
        <ele>18</ele>
        <time>2024-11-11T14:05:30Z</time>
      </trkpt>
      <trkpt lat="43.03912" lon="6.11031">
        <ele>10</ele>
        <time>2024-11-11T14:05:43Z</time>
      </trkpt>
      <trkpt lat="43.03935" lon="6.11033">
        <ele>8</ele>
        <time>2024-11-11T14:05:48Z</time>
      </trkpt>
      <trkpt lat="43.03942" lon="6.11038">
        <ele>7</ele>
        <time>2024-11-11T14:05:50Z</time>
      </trkpt>
      <trkpt lat="43.03942" lon="6.11227">
        <ele>6</ele>
        <time>2024-11-11T14:06:22Z</time>
      </trkpt>
      <trkpt lat="43.03939" lon="6.11254">
        <ele>6</ele>
        <time>2024-11-11T14:06:27Z</time>
      </trkpt>
      <trkpt lat="43.03694" lon="6.11296">
        <ele>32</ele>
        <time>2024-11-11T14:07:25Z</time>
      </trkpt>
      <trkpt lat="43.03682" lon="6.1131">
        <ele>34</ele>
        <time>2024-11-11T14:07:28Z</time>
      </trkpt>
      <trkpt lat="43.03684" lon="6.11343">
        <ele>32</ele>
        <time>2024-11-11T14:07:34Z</time>
      </trkpt>
      <trkpt lat="43.03675" lon="6.11357">
        <ele>34</ele>
        <time>2024-11-11T14:07:37Z</time>
      </trkpt>
      <trkpt lat="43.03667" lon="6.11356">
        <ele>35</ele>
        <time>2024-11-11T14:07:39Z</time>
      </trkpt>
      <trkpt lat="43.03659" lon="6.11349">
        <ele>35</ele>
        <time>2024-11-11T14:07:41Z</time>
      </trkpt>
      <trkpt lat="43.03651" lon="6.11335">
        <ele>34</ele>
        <time>2024-11-11T14:07:44Z</time>
      </trkpt>
      <trkpt lat="43.03646" lon="6.1131">
        <ele>34</ele>
        <time>2024-11-11T14:07:49Z</time>
      </trkpt>
      <trkpt lat="43.0364" lon="6.11307">
        <ele>33</ele>
        <time>2024-11-11T14:07:50Z</time>
      </trkpt>
      <trkpt lat="43.03634" lon="6.11319">
        <ele>32</ele>
        <time>2024-11-11T14:07:53Z</time>
      </trkpt>
      <trkpt lat="43.03605" lon="6.11456">
        <ele>31</ele>
        <time>2024-11-11T14:08:17Z</time>
      </trkpt>
      <trkpt lat="43.036" lon="6.115">
        <ele>33</ele>
        <time>2024-11-11T14:08:25Z</time>
      </trkpt>
      <trkpt lat="43.03608" lon="6.11525">
        <ele>34</ele>
        <time>2024-11-11T14:08:29Z</time>
      </trkpt>
      <trkpt lat="43.0362" lon="6.11609">
        <ele>39</ele>
        <time>2024-11-11T14:08:44Z</time>
      </trkpt>
      <trkpt lat="43.03623" lon="6.11674">
        <ele>42</ele>
        <time>2024-11-11T14:08:55Z</time>
      </trkpt>
      <trkpt lat="43.03615" lon="6.11721">
        <ele>45</ele>
        <time>2024-11-11T14:09:03Z</time>
      </trkpt>
      <trkpt lat="43.03607" lon="6.11737">
        <ele>47</ele>
        <time>2024-11-11T14:09:07Z</time>
      </trkpt>
      <trkpt lat="43.03577" lon="6.11776">
        <ele>50</ele>
        <time>2024-11-11T14:09:16Z</time>
      </trkpt>
      <trkpt lat="43.03539" lon="6.11845">
        <ele>47</ele>
        <time>2024-11-11T14:09:31Z</time>
      </trkpt>
      <trkpt lat="43.03541" lon="6.11891">
        <ele>49</ele>
        <time>2024-11-11T14:09:39Z</time>
      </trkpt>
      <trkpt lat="43.03538" lon="6.1193">
        <ele>51</ele>
        <time>2024-11-11T14:09:46Z</time>
      </trkpt>
      <trkpt lat="43.0352" lon="6.12006">
        <ele>58</ele>
        <time>2024-11-11T14:09:59Z</time>
      </trkpt>
      <trkpt lat="43.03509" lon="6.12035">
        <ele>62</ele>
        <time>2024-11-11T14:10:05Z</time>
      </trkpt>
      <trkpt lat="43.03495" lon="6.12052">
        <ele>64</ele>
        <time>2024-11-11T14:10:09Z</time>
      </trkpt>
      <trkpt lat="43.03469" lon="6.12101">
        <ele>62</ele>
        <time>2024-11-11T14:10:19Z</time>
      </trkpt>
      <trkpt lat="43.03436" lon="6.12205">
        <ele>60</ele>
        <time>2024-11-11T14:10:39Z</time>
      </trkpt>
      <trkpt lat="43.03433" lon="6.12239">
        <ele>60</ele>
        <time>2024-11-11T14:10:45Z</time>
      </trkpt>
      <trkpt lat="43.03409" lon="6.12269">
        <ele>56</ele>
        <time>2024-11-11T14:10:52Z</time>
      </trkpt>
      <trkpt lat="43.03403" lon="6.12308">
        <ele>51</ele>
        <time>2024-11-11T14:10:59Z</time>
      </trkpt>
      <trkpt lat="43.03421" lon="6.12339">
        <ele>52</ele>
        <time>2024-11-11T14:11:06Z</time>
      </trkpt>
      <trkpt lat="43.03421" lon="6.12347">
        <ele>51</ele>
        <time>2024-11-11T14:11:07Z</time>
      </trkpt>
      <trkpt lat="43.03432" lon="6.12339">
        <ele>51</ele>
        <time>2024-11-11T14:11:10Z</time>
      </trkpt>
      <trkpt lat="43.03436" lon="6.12378">
        <ele>47</ele>
        <time>2024-11-11T14:11:17Z</time>
      </trkpt>
      <trkpt lat="43.03468" lon="6.12356">
        <ele>48</ele>
        <time>2024-11-11T14:11:25Z</time>
      </trkpt>
      <trkpt lat="43.03504" lon="6.12364">
        <ele>45</ele>
        <time>2024-11-11T14:11:34Z</time>
      </trkpt>
      <trkpt lat="43.03519" lon="6.12356">
        <ele>42</ele>
        <time>2024-11-11T14:11:37Z</time>
      </trkpt>
      <trkpt lat="43.03531" lon="6.12339">
        <ele>41</ele>
        <time>2024-11-11T14:11:41Z</time>
      </trkpt>
      <trkpt lat="43.03542" lon="6.12305">
        <ele>42</ele>
        <time>2024-11-11T14:11:48Z</time>
      </trkpt>
      <trkpt lat="43.03565" lon="6.12266">
        <ele>40</ele>
        <time>2024-11-11T14:11:56Z</time>
      </trkpt>
      <trkpt lat="43.03577" lon="6.12255">
        <ele>38</ele>
        <time>2024-11-11T14:12:00Z</time>
      </trkpt>
      <trkpt lat="43.03585" lon="6.12253">
        <ele>37</ele>
        <time>2024-11-11T14:12:02Z</time>
      </trkpt>
      <trkpt lat="43.03601" lon="6.1226">
        <ele>34</ele>
        <time>2024-11-11T14:12:06Z</time>
      </trkpt>
      <trkpt lat="43.03632" lon="6.12287">
        <ele>30</ele>
        <time>2024-11-11T14:12:14Z</time>
      </trkpt>
      <trkpt lat="43.03642" lon="6.12301">
        <ele>29</ele>
        <time>2024-11-11T14:12:17Z</time>
      </trkpt>
      <trkpt lat="43.0365" lon="6.12373">
        <ele>28</ele>
        <time>2024-11-11T14:12:30Z</time>
      </trkpt>
      <trkpt lat="43.03648" lon="6.12403">
        <ele>27</ele>
        <time>2024-11-11T14:12:35Z</time>
      </trkpt>
      <trkpt lat="43.03661" lon="6.1243">
        <ele>27</ele>
        <time>2024-11-11T14:12:41Z</time>
      </trkpt>
      <trkpt lat="43.03673" lon="6.12499">
        <ele>25</ele>
        <time>2024-11-11T14:12:53Z</time>
      </trkpt>
      <trkpt lat="43.03667" lon="6.12512">
        <ele>23</ele>
        <time>2024-11-11T14:12:55Z</time>
      </trkpt>
      <trkpt lat="43.03657" lon="6.12518">
        <ele>23</ele>
        <time>2024-11-11T14:12:58Z</time>
      </trkpt>
      <trkpt lat="43.03611" lon="6.12516">
        <ele>22</ele>
        <time>2024-11-11T14:13:09Z</time>
      </trkpt>
      <trkpt lat="43.03599" lon="6.12534">
        <ele>20</ele>
        <time>2024-11-11T14:13:13Z</time>
      </trkpt>
      <trkpt lat="43.03597" lon="6.12552">
        <ele>18</ele>
        <time>2024-11-11T14:13:16Z</time>
      </trkpt>
      <trkpt lat="43.03607" lon="6.12555">
        <ele>19</ele>
        <time>2024-11-11T14:13:18Z</time>
      </trkpt>
      <trkpt lat="43.03631" lon="6.12532">
        <ele>21</ele>
        <time>2024-11-11T14:13:25Z</time>
      </trkpt>
      <trkpt lat="43.03646" lon="6.12537">
        <ele>21</ele>
        <time>2024-11-11T14:13:29Z</time>
      </trkpt>
      <trkpt lat="43.03668" lon="6.1264">
        <ele>18</ele>
        <time>2024-11-11T14:13:47Z</time>
      </trkpt>
      <trkpt lat="43.03677" lon="6.12665">
        <ele>19</ele>
        <time>2024-11-11T14:13:52Z</time>
      </trkpt>
      <trkpt lat="43.03683" lon="6.12671">
        <ele>20</ele>
        <time>2024-11-11T14:13:54Z</time>
      </trkpt>
      <trkpt lat="43.03695" lon="6.12673">
        <ele>22</ele>
        <time>2024-11-11T14:13:56Z</time>
      </trkpt>
      <trkpt lat="43.03729" lon="6.12669">
        <ele>27</ele>
        <time>2024-11-11T14:14:04Z</time>
      </trkpt>
      <trkpt lat="43.03739" lon="6.12683">
        <ele>29</ele>
        <time>2024-11-11T14:14:08Z</time>
      </trkpt>
      <trkpt lat="43.03743" lon="6.12749">
        <ele>31</ele>
        <time>2024-11-11T14:14:19Z</time>
      </trkpt>
      <trkpt lat="43.03754" lon="6.12773">
        <ele>34</ele>
        <time>2024-11-11T14:14:24Z</time>
      </trkpt>
      <trkpt lat="43.03754" lon="6.12788">
        <ele>35</ele>
        <time>2024-11-11T14:14:26Z</time>
      </trkpt>
      <trkpt lat="43.03742" lon="6.12899">
        <ele>41</ele>
        <time>2024-11-11T14:14:46Z</time>
      </trkpt>
      <trkpt lat="43.03723" lon="6.12938">
        <ele>40</ele>
        <time>2024-11-11T14:14:54Z</time>
      </trkpt>
      <trkpt lat="43.03718" lon="6.12963">
        <ele>39</ele>
        <time>2024-11-11T14:14:58Z</time>
      </trkpt>
      <trkpt lat="43.03727" lon="6.13049">
        <ele>39</ele>
        <time>2024-11-11T14:15:13Z</time>
      </trkpt>
      <trkpt lat="43.03735" lon="6.1307">
        <ele>40</ele>
        <time>2024-11-11T14:15:17Z</time>
      </trkpt>
      <trkpt lat="43.03762" lon="6.13105">
        <ele>42</ele>
        <time>2024-11-11T14:15:25Z</time>
      </trkpt>
      <trkpt lat="43.03787" lon="6.13176">
        <ele>41</ele>
        <time>2024-11-11T14:15:39Z</time>
      </trkpt>
      <trkpt lat="43.0379" lon="6.13201">
        <ele>42</ele>
        <time>2024-11-11T14:15:43Z</time>
      </trkpt>
      <trkpt lat="43.03779" lon="6.13279">
        <ele>40</ele>
        <time>2024-11-11T14:15:57Z</time>
      </trkpt>
      <trkpt lat="43.03781" lon="6.13283">
        <ele>40</ele>
        <time>2024-11-11T14:15:58Z</time>
      </trkpt>
      <trkpt lat="43.03787" lon="6.13279">
        <ele>41</ele>
        <time>2024-11-11T14:15:59Z</time>
      </trkpt>
      <trkpt lat="43.03809" lon="6.13192">
        <ele>44</ele>
        <time>2024-11-11T14:16:15Z</time>
      </trkpt>
      <trkpt lat="43.03815" lon="6.13186">
        <ele>45</ele>
        <time>2024-11-11T14:16:17Z</time>
      </trkpt>
      <trkpt lat="43.03827" lon="6.13184">
        <ele>47</ele>
        <time>2024-11-11T14:16:19Z</time>
      </trkpt>
      <trkpt lat="43.03831" lon="6.13187">
        <ele>48</ele>
        <time>2024-11-11T14:16:21Z</time>
      </trkpt>
      <trkpt lat="43.03849" lon="6.13237">
        <ele>46</ele>
        <time>2024-11-11T14:16:30Z</time>
      </trkpt>
      <trkpt lat="43.0385" lon="6.13296">
        <ele>47</ele>
        <time>2024-11-11T14:16:40Z</time>
      </trkpt>
      <trkpt lat="43.03891" lon="6.13393">
        <ele>50</ele>
        <time>2024-11-11T14:16:59Z</time>
      </trkpt>
      <trkpt lat="43.03901" lon="6.1343">
        <ele>52</ele>
        <time>2024-11-11T14:17:06Z</time>
      </trkpt>
      <trkpt lat="43.03898" lon="6.13462">
        <ele>51</ele>
        <time>2024-11-11T14:17:11Z</time>
      </trkpt>
      <trkpt lat="43.03887" lon="6.13486">
        <ele>51</ele>
        <time>2024-11-11T14:17:16Z</time>
      </trkpt>
      <trkpt lat="43.03883" lon="6.13548">
        <ele>48</ele>
        <time>2024-11-11T14:17:27Z</time>
      </trkpt>
      <trkpt lat="43.03875" lon="6.13569">
        <ele>47</ele>
        <time>2024-11-11T14:17:31Z</time>
      </trkpt>
      <trkpt lat="43.03858" lon="6.13591">
        <ele>45</ele>
        <time>2024-11-11T14:17:36Z</time>
      </trkpt>
      <trkpt lat="43.03845" lon="6.13617">
        <ele>41</ele>
        <time>2024-11-11T14:17:42Z</time>
      </trkpt>
      <trkpt lat="43.03845" lon="6.13643">
        <ele>37</ele>
        <time>2024-11-11T14:17:46Z</time>
      </trkpt>
      <trkpt lat="43.03829" lon="6.13645">
        <ele>37</ele>
        <time>2024-11-11T14:17:50Z</time>
      </trkpt>
      <trkpt lat="43.03812" lon="6.13637">
        <ele>36</ele>
        <time>2024-11-11T14:17:54Z</time>
      </trkpt>
      <trkpt lat="43.03808" lon="6.13644">
        <ele>35</ele>
        <time>2024-11-11T14:17:56Z</time>
      </trkpt>
      <trkpt lat="43.03802" lon="6.137">
        <ele>30</ele>
        <time>2024-11-11T14:18:05Z</time>
      </trkpt>
      <trkpt lat="43.0379" lon="6.13742">
        <ele>28</ele>
        <time>2024-11-11T14:18:13Z</time>
      </trkpt>
      <trkpt lat="43.03793" lon="6.13779">
        <ele>29</ele>
        <time>2024-11-11T14:18:19Z</time>
      </trkpt>
      <trkpt lat="43.03762" lon="6.13957">
        <ele>35</ele>
        <time>2024-11-11T14:18:51Z</time>
      </trkpt>
      <trkpt lat="43.03738" lon="6.14052">
        <ele>35</ele>
        <time>2024-11-11T14:19:08Z</time>
      </trkpt>
      <trkpt lat="43.03739" lon="6.14118">
        <ele>32</ele>
        <time>2024-11-11T14:19:19Z</time>
      </trkpt>
      <trkpt lat="43.03758" lon="6.14149">
        <ele>30</ele>
        <time>2024-11-11T14:19:26Z</time>
      </trkpt>
      <trkpt lat="43.03802" lon="6.14206">
        <ele>26</ele>
        <time>2024-11-11T14:19:40Z</time>
      </trkpt>
      <trkpt lat="43.03818" lon="6.14246">
        <ele>25</ele>
        <time>2024-11-11T14:19:48Z</time>
      </trkpt>
      <trkpt lat="43.03829" lon="6.14297">
        <ele>23</ele>
        <time>2024-11-11T14:19:57Z</time>
      </trkpt>
      <trkpt lat="43.03835" lon="6.14394">
        <ele>15</ele>
        <time>2024-11-11T14:20:14Z</time>
      </trkpt>
      <trkpt lat="43.03831" lon="6.14414">
        <ele>13</ele>
        <time>2024-11-11T14:20:17Z</time>
      </trkpt>
      <trkpt lat="43.03806" lon="6.1442">
        <ele>13</ele>
        <time>2024-11-11T14:20:23Z</time>
      </trkpt>
      <trkpt lat="43.03781" lon="6.14437">
        <ele>12</ele>
        <time>2024-11-11T14:20:30Z</time>
      </trkpt>
      <trkpt lat="43.03758" lon="6.14446">
        <ele>12</ele>
        <time>2024-11-11T14:20:35Z</time>
      </trkpt>
      <trkpt lat="43.03756" lon="6.14455">
        <ele>12</ele>
        <time>2024-11-11T14:20:37Z</time>
      </trkpt>
      <trkpt lat="43.03772" lon="6.14473">
        <ele>11</ele>
        <time>2024-11-11T14:20:42Z</time>
      </trkpt>
      <trkpt lat="43.03793" lon="6.14483">
        <ele>11</ele>
        <time>2024-11-11T14:20:47Z</time>
      </trkpt>
      <trkpt lat="43.04025" lon="6.14517">
        <ele>5</ele>
        <time>2024-11-11T14:21:41Z</time>
      </trkpt>
      <trkpt lat="43.04054" lon="6.14515">
        <ele>4</ele>
        <time>2024-11-11T14:21:48Z</time>
      </trkpt>
      <trkpt lat="43.04061" lon="6.14519">
        <ele>4</ele>
        <time>2024-11-11T14:21:50Z</time>
      </trkpt>
      <trkpt lat="43.04066" lon="6.14534">
        <ele>3</ele>
        <time>2024-11-11T14:21:53Z</time>
      </trkpt>
      <trkpt lat="43.04054" lon="6.14577">
        <ele>3</ele>
        <time>2024-11-11T14:22:01Z</time>
      </trkpt>
      <trkpt lat="43.03999" lon="6.14723">
        <ele>4</ele>
        <time>2024-11-11T14:22:29Z</time>
      </trkpt>
      <trkpt lat="43.03968" lon="6.1477">
        <ele>5</ele>
        <time>2024-11-11T14:22:39Z</time>
      </trkpt>
      <trkpt lat="43.03927" lon="6.14804">
        <ele>7</ele>
        <time>2024-11-11T14:22:51Z</time>
      </trkpt>
      <trkpt lat="43.03903" lon="6.14872">
        <ele>9</ele>
        <time>2024-11-11T14:23:03Z</time>
      </trkpt>
      <trkpt lat="43.03869" lon="6.14942">
        <ele>11</ele>
        <time>2024-11-11T14:23:18Z</time>
      </trkpt>
      <trkpt lat="43.03859" lon="6.14944">
        <ele>11</ele>
        <time>2024-11-11T14:23:20Z</time>
      </trkpt>
      <trkpt lat="43.03839" lon="6.14933">
        <ele>13</ele>
        <time>2024-11-11T14:23:25Z</time>
      </trkpt>
      <trkpt lat="43.03826" lon="6.14931">
        <ele>14</ele>
        <time>2024-11-11T14:23:28Z</time>
      </trkpt>
      <trkpt lat="43.038" lon="6.14946">
        <ele>15</ele>
        <time>2024-11-11T14:23:35Z</time>
      </trkpt>
      <trkpt lat="43.03777" lon="6.14951">
        <ele>16</ele>
        <time>2024-11-11T14:23:40Z</time>
      </trkpt>
      <trkpt lat="43.0377" lon="6.14966">
        <ele>16</ele>
        <time>2024-11-11T14:23:43Z</time>
      </trkpt>
      <trkpt lat="43.03777" lon="6.15015">
        <ele>13</ele>
        <time>2024-11-11T14:23:52Z</time>
      </trkpt>
      <trkpt lat="43.0377" lon="6.15032">
        <ele>12</ele>
        <time>2024-11-11T14:23:55Z</time>
      </trkpt>
      <trkpt lat="43.03761" lon="6.15035">
        <ele>13</ele>
        <time>2024-11-11T14:23:57Z</time>
      </trkpt>
      <trkpt lat="43.03741" lon="6.15031">
        <ele>13</ele>
        <time>2024-11-11T14:24:02Z</time>
      </trkpt>
      <trkpt lat="43.03686" lon="6.14998">
        <ele>14</ele>
        <time>2024-11-11T14:24:16Z</time>
      </trkpt>
      <trkpt lat="43.03681" lon="6.14978">
        <ele>15</ele>
        <time>2024-11-11T14:24:20Z</time>
      </trkpt>
      <trkpt lat="43.03691" lon="6.1496">
        <ele>17</ele>
        <time>2024-11-11T14:24:24Z</time>
      </trkpt>
      <trkpt lat="43.03692" lon="6.14956">
        <ele>17</ele>
        <time>2024-11-11T14:24:24Z</time>
      </trkpt>
      <trkpt lat="43.03688" lon="6.14954">
        <ele>17</ele>
        <time>2024-11-11T14:24:25Z</time>
      </trkpt>
    </trkseg>
  </trk>
</gpx>